Time;durP1;ratioP1;P1;durP2;ratioP2;P2;SDS_P1;SDS_P2;PMS_P1;PMS_P2;Temp;Humidity;BMP_temperature;BMP_pressure;BME280_temperature;BME280_humidity;BME280_pressure;Samples;Min_cycle;Max_cycle;Signal;HPM_P1;HPM_P2
2021/08/24 00:01:19;;;;;;;5.67;0.90;;;;;;;;;;4836202;28;20197;-82
2021/08/24 00:03:42;;;;;;;5.10;0.87;;;;;;;;;;4827676;28;20225;-87
2021/08/24 00:06:04;;;;;;;10.20;1.50;;;;;;;;;;4817852;28;20543;-75
2021/08/24 00:08:27;;;;;;;11.70;1.67;;;;;;;;;;4835696;28;20276;-85
2021/08/24 00:10:53;;;;;;;14.03;2.00;;;15.20;99.90;;;;;;4837207;28;20270;-84
2021/08/24 00:13:17;;;;;;;7.87;1.20;;;15.30;99.90;;;;;;4837420;28;20183;-85
2021/08/24 00:15:40;;;;;;;5.57;0.87;;;15.20;99.90;;;;;;4837766;28;20204;-85
2021/08/24 00:18:04;;;;;;;11.63;1.73;;;15.20;99.90;;;;;;4837089;28;20243;-84
2021/08/24 00:20:30;;;;;;;5.87;0.97;;;;;;;;;;4837167;28;20187;-85
2021/08/24 00:22:53;;;;;;;13.60;1.83;;;;;;;;;;4836923;28;20222;-84
2021/08/24 00:25:16;;;;;;;6.43;1.00;;;;;;;;;;4837284;28;20579;-86
2021/08/24 00:27:40;;;;;;;12.63;1.87;;;15.50;99.90;;;;;;4836300;28;20216;-84
2021/08/24 00:30:03;;;;;;;11.03;1.60;;;;;;;;;;4836662;28;20214;-86
2021/08/24 00:32:28;;;;;;;4.23;0.70;;;;;;;;;;4837415;28;20206;-86
2021/08/24 00:34:51;;;;;;;13.07;1.90;;;;;;;;;;4837598;28;20227;-85
2021/08/24 00:37:13;;;;;;;6.27;1.03;;;;;;;;;;4837849;28;20251;-84
2021/08/24 00:39:36;;;;;;;6.23;1.00;;;;;;;;;;4902782;28;20572;-78
2021/08/24 00:41:59;;;;;;;11.80;1.73;;;;;;;;;;4836627;28;20780;-84
2021/08/24 00:44:24;;;;;;;3.87;0.60;;;15.80;99.90;;;;;;4904422;28;20626;-87
2021/08/24 00:46:50;;;;;;;8.63;1.20;;;15.80;99.90;;;;;;4905221;28;20749;-84
2021/08/24 00:49:16;;;;;;;10.37;1.60;;;15.80;99.90;;;;;;4903790;28;20196;-85
2021/08/24 00:51:40;;;;;;;6.83;1.10;;;15.90;99.90;;;;;;4837171;28;20532;-85
2021/08/24 00:54:04;;;;;;;12.97;1.87;;;15.90;99.90;;;;;;4836812;28;20191;-85
2021/08/24 00:56:27;;;;;;;8.70;1.23;;;;;;;;;;4836043;28;20236;-81
2021/08/24 00:58:50;;;;;;;11.47;1.63;;;;;;;;;;4836231;28;20191;-81
2021/08/24 01:01:14;;;;;;;6.63;1.07;;;15.90;30.00;;;;;;4834118;28;20187;-85
2021/08/24 01:03:42;;;;;;;6.30;1.03;;;16.10;99.90;;;;;;4836881;28;20230;-86
2021/08/24 01:06:13;;;;;;;6.53;1.10;;;16.00;30.10;;;;;;4836349;28;20191;-85
2021/08/24 01:08:45;;;;;;;6.37;0.97;;;16.00;30.20;;;;;;4835730;28;20269;-85
2021/08/24 01:11:17;;;;;;;8.60;1.33;;;16.00;30.20;;;;;;4836164;28;20222;-86
2021/08/24 01:13:42;;;;;;;5.23;0.90;;;16.00;30.20;;;;;;4837321;28;20246;-86
2021/08/24 01:16:13;;;;;;;6.20;1.07;;;16.00;30.30;;;;;;4836858;28;20548;-86
2021/08/24 01:18:41;;;;;;;3.37;0.60;;;16.00;30.40;;;;;;4837305;28;20244;-85
2021/08/24 01:21:28;;;;;;;6.07;1.00;;;16.00;30.50;;;;;;4862612;28;20196;-83
2021/08/24 01:23:55;;;;;;;12.10;1.80;;;16.00;30.60;;;;;;4916075;28;20172;-85
2021/08/24 01:26:31;;;;;;;5.70;0.97;;;16.00;30.60;;;;;;4897951;28;20196;-84
2021/08/24 01:29:27;;;;;;;16.23;2.33;;;16.00;30.60;;;;;;4914988;28;20199;-85
2021/08/24 01:32:15;;;;;;;10.53;1.53;;;16.00;30.70;;;;;;4916315;28;20233;-85
2021/08/24 01:35:06;;;;;;;4.90;0.83;;;16.10;30.10;;;;;;4916069;28;20180;-85
2021/08/24 01:37:36;;;;;;;4.70;0.77;;;16.00;30.80;;;;;;4916093;28;20181;-82
2021/08/24 01:40:05;;;;;;;11.70;1.77;;;16.00;30.90;;;;;;4915010;28;20209;-84
2021/08/24 01:42:29;;;;;;;3.93;0.67;;;16.00;31.00;;;;;;4915939;28;20649;-84
2021/08/24 01:45:01;;;;;;;10.63;1.63;;;16.00;31.00;;;;;;4914902;28;20530;-85
2021/08/24 01:47:29;;;;;;;4.47;0.80;;;16.00;31.10;;;;;;4915993;28;20168;-85
2021/08/24 01:50:01;;;;;;;10.90;1.73;;;16.00;31.30;;;;;;4896969;28;20224;-84
2021/08/24 01:52:27;;;;;;;5.57;0.93;;;16.00;31.30;;;;;;4915747;28;20265;-84
2021/08/24 01:54:56;;;;;;;9.37;1.53;;;15.90;31.50;;;;;;4914258;28;20570;-85
2021/08/24 01:57:27;;;;;;;7.13;1.17;;;15.90;31.70;;;;;;4915469;28;20188;-84
2021/08/24 01:59:54;;;;;;;10.23;1.63;;;15.80;32.00;;;;;;4896167;28;20204;-85
2021/08/24 02:02:22;;;;;;;6.37;1.00;;;15.70;32.40;;;;;;4867001;28;20234;-84
2021/08/24 02:04:51;;;;;;;12.10;1.93;;;15.60;32.50;;;;;;4834791;28;20186;-82
2021/08/24 02:07:15;;;;;;;5.67;0.97;;;15.50;32.40;;;;;;4835183;28;20674;-85
2021/08/24 02:09:42;;;;;;;6.43;1.13;;;15.50;32.20;;;;;;4900890;28;20200;-85
2021/08/24 02:12:09;;;;;;;8.17;1.30;;;15.40;32.00;;;;;;4834977;28;20591;-85
2021/08/24 02:14:34;;;;;;;4.60;0.77;;;15.30;31.80;;;;;;4835387;28;20236;-83
2021/08/24 02:17:01;;;;;;;11.03;1.80;;;15.20;31.60;;;;;;4900779;28;20191;-86
2021/08/24 02:19:31;;;;;;;5.23;1.00;;;15.20;31.20;;;;;;4835297;28;20182;-86
2021/08/24 02:21:57;;;;;;;10.23;1.67;;;15.30;31.10;;;;;;4902187;28;20216;-86
2021/08/24 02:24:23;;;;;;;4.97;0.90;;;15.10;30.30;;;;;;4901506;28;20257;-84
2021/08/24 02:26:48;;;;;;;8.67;1.47;;;15.10;31.20;;;;;;4834430;28;20244;-84
2021/08/24 02:29:12;;;;;;;4.97;0.87;;;15.10;31.20;;;;;;4837222;28;20243;-86
2021/08/24 02:31:41;;;;;;;5.73;1.03;;;15.10;31.10;;;;;;4838850;28;20578;-86
2021/08/24 02:34:12;;;;;;;7.87;1.33;;;15.10;31.20;;;;;;4838677;28;20193;-86
2021/08/24 02:36:37;;;;;;;5.13;0.90;;;15.00;31.40;;;;;;4838978;28;20228;-86
2021/08/24 02:39:04;;;;;;;9.00;1.57;;;14.90;30.60;;;;;;4836918;28;20194;-84
2021/08/24 02:41:32;;;;;;;4.03;0.80;;;14.80;31.60;;;;;;4904708;28;20193;-80
2021/08/24 02:44:00;;;;;;;7.10;1.20;;;15.50;31.80;;;;;;4838539;28;20186;-86
2021/08/24 02:46:27;;;;;;;7.10;1.23;;;14.80;31.10;;;;;;4838390;28;20712;-83
2021/08/24 02:48:55;;;;;;;11.10;1.90;;;14.80;31.00;;;;;;4904401;28;20558;-86
2021/08/24 02:51:20;;;;;;;4.43;0.80;;;14.80;31.00;;;;;;4837843;28;20214;-84
2021/08/24 02:53:46;;;;;;;6.07;1.00;;;14.80;30.60;;;;;;4838440;28;20183;-83
2021/08/24 02:56:09;;;;;;;4.33;0.77;;;;;;;;;;4906850;28;20595;-84
2021/08/24 02:58:31;;;;;;;6.57;1.13;;;14.90;99.90;;;;;;4837644;28;20599;-85
2021/08/24 03:00:54;;;;;;;11.03;1.80;;;;;;;;;;4835509;28;20720;-85
2021/08/24 03:03:18;;;;;;;5.47;1.00;;;15.00;30.00;;;;;;4837887;28;20243;-84
2021/08/24 03:05:41;;;;;;;6.37;1.17;;;;;;;;;;4905956;28;20307;-84
2021/08/24 03:08:05;;;;;;;12.83;2.00;;;14.20;99.90;;;;;;4906323;28;20192;-82
2021/08/24 03:10:30;;;;;;;4.47;0.90;;;15.00;99.90;;;;;;4836810;28;20275;-83
2021/08/24 03:13:04;;;;;;;11.43;1.80;;;15.00;30.00;;;;;;4837716;28;20183;-84
2021/08/24 03:15:33;;;;;;;4.87;0.90;;;14.80;99.90;;;;;;4838033;28;20557;-82
2021/08/24 03:17:59;;;;;;;10.63;1.73;;;14.90;30.00;;;;;;4922146;28;20245;-85
2021/08/24 03:20:28;;;;;;;9.00;1.47;;;13.20;99.90;;;;;;4836967;28;20191;-84
2021/08/24 03:22:52;;;;;;;9.13;1.57;;;14.80;99.90;;;;;;4837284;28;20592;-85
2021/08/24 03:25:15;;;;;;;6.33;1.07;;;;;;;;;;4905606;28;20553;-87
2021/08/24 03:27:42;;;;;;;5.43;1.00;;;14.90;99.90;;;;;;4838014;28;20213;-82
2021/08/24 03:30:07;;;;;;;11.90;1.97;;;14.40;99.90;;;;;;4904496;28;20705;-86
2021/08/24 03:32:30;;;;;;;4.87;0.87;;;15.40;99.90;;;;;;4836955;28;20256;-85
2021/08/24 03:34:53;;;;;;;7.13;1.20;;;;;;;;;;4837788;28;20240;-87
2021/08/24 03:37:17;;;;;;;5.57;0.97;;;15.00;99.90;;;;;;4838087;28;20232;-87
2021/08/24 03:39:40;;;;;;;5.53;1.00;;;;;;;;;;4836770;28;20187;-85
2021/08/24 03:42:03;;;;;;;9.60;1.70;;;;;;;;;;4838079;28;20183;-83
2021/08/24 03:44:26;;;;;;;3.93;0.77;;;;;;;;;;4903577;28;20196;-83
2021/08/24 03:46:48;;;;;;;6.37;1.07;;;;;;;;;;4837981;28;20190;-87
2021/08/24 03:49:11;;;;;;;4.20;0.80;;;;;;;;;;4837566;28;20652;-84
2021/08/24 03:51:34;;;;;;;5.17;1.00;;;;;;;;;;4837855;28;20207;-85
2021/08/24 03:53:58;;;;;;;10.00;1.70;;;15.10;99.90;;;;;;4904549;28;20250;-83
2021/08/24 03:56:21;;;;;;;5.00;0.93;;;;;;;;;;4837672;28;20182;-85
2021/08/24 03:58:44;;;;;;;5.10;0.97;;;;;;;;;;4836890;28;20629;-82
2021/08/24 04:01:12;;;;;;;4.60;0.87;;;14.50;99.90;;;;;;4835618;28;20191;-86
2021/08/24 04:03:35;;;;;;;5.73;1.00;;;;;;;;;;4916418;28;20223;-85
2021/08/24 04:06:01;;;;;;;8.77;1.53;;;15.20;99.90;;;;;;4916492;28;20184;-86
2021/08/24 04:08:24;;;;;;;18.53;3.23;;;15.20;99.90;;;;;;4916644;28;20188;-84
2021/08/24 04:10:48;;;;;;;4.73;0.93;;;15.20;99.90;;;;;;4835792;28;20676;-84
2021/08/24 04:13:10;;;;;;;5.73;1.00;;;15.40;99.90;;;;;;4836687;28;20183;-84
2021/08/24 04:15:33;;;;;;;4.53;0.87;;;;;;;;;;4835893;28;20640;-83
2021/08/24 04:17:56;;;;;;;8.17;1.57;;;;;;;;;;4838147;28;20202;-85
2021/08/24 04:20:19;;;;;;;6.30;1.10;;;15.50;30.40;;;;;;4836556;28;20191;-87
2021/08/24 04:22:46;;;;;;;6.00;1.13;;;15.00;99.90;;;;;;4837043;28;20230;-82
2021/08/24 04:25:09;;;;;;;6.43;1.13;;;15.60;30.90;;;;;;4836735;28;20255;-78
2021/08/24 04:27:33;;;;;;;4.43;0.83;;;15.60;31.30;;;;;;4835746;28;20191;-81
2021/08/24 04:29:56;;;;;;;14.83;2.40;;;;;;;;;;4835068;28;20179;-84
2021/08/24 04:32:28;;;;;;;5.97;1.00;;;15.50;32.70;;;;;;4836382;28;20595;-84
2021/08/24 04:34:50;;;;;;;7.87;1.30;;;;;;;;;;4836270;28;20190;-83
2021/08/24 04:37:13;;;;;;;4.67;0.90;;;;;;;;;;4835845;28;20232;-83
2021/08/24 04:39:36;;;;;;;4.47;0.83;;;;;;;;;;4835686;28;20236;-85
2021/08/24 04:41:59;;;;;;;10.13;1.67;;;;;;;;;;4836338;28;20190;-84
2021/08/24 04:44:25;;;;;;;7.53;1.33;;;15.30;32.70;;;;;;4836172;28;20553;-84
2021/08/24 04:46:47;;;;;;;6.70;1.17;;;;;;;;;;4836384;28;20239;-84
2021/08/24 04:49:10;;;;;;;3.17;0.60;;;;;;;;;;4836587;28;20202;-84
2021/08/24 04:51:33;;;;;;;5.17;0.93;;;;;;;;;;4836570;28;20279;-82
2021/08/24 04:53:55;;;;;;;10.00;1.67;;;;;;;;;;4836166;28;20186;-84
2021/08/24 04:56:18;;;;;;;5.30;1.00;;;;;;;;;;4836445;28;20187;-84
2021/08/24 04:58:40;;;;;;;9.93;1.73;;;15.60;31.50;;;;;;4835127;28;20190;-85
2021/08/24 05:01:04;;;;;;;12.73;2.03;;;15.60;32.30;;;;;;4901048;28;20200;-83
2021/08/24 05:03:27;;;;;;;4.80;0.93;;;;;;;;;;4836384;28;20175;-79
2021/08/24 05:05:50;;;;;;;10.07;1.67;;;;;;;;;;4836114;28;20243;-77
2021/08/24 05:08:13;;;;;;;17.73;2.77;;;;;;;;;;4835710;28;20221;-82
2021/08/24 05:10:37;;;;;;;5.00;0.90;;;;;;;;;;4835013;28;20308;-82
2021/08/24 05:13:00;;;;;;;8.27;1.43;;;;;;;;;;4835727;28;20260;-78
2021/08/24 05:15:23;;;;;;;5.57;1.10;;;;;;;;;;4835815;28;20660;-81
2021/08/24 05:17:50;;;;;;;4.60;0.87;;;16.00;35.90;;;;;;4835951;28;20521;-84
2021/08/24 05:20:13;;;;;;;9.60;1.67;;;;;;;;;;4902387;28;20689;-82
2021/08/24 05:22:37;;;;;;;4.97;0.90;;;15.70;35.20;;;;;;4913881;28;20253;-84
2021/08/24 05:24:59;;;;;;;15.03;2.43;;;;;;;;;;4894792;28;20184;-82
2021/08/24 05:27:22;;;;;;;6.17;1.10;;;;;;;;;;4901088;28;20231;-85
2021/08/24 05:29:45;;;;;;;5.10;0.90;;;;;;;;;;4834724;28;20186;-84
2021/08/24 05:32:08;;;;;;;3.87;0.67;;;16.70;39.60;;;;;;4900592;28;20269;-86
2021/08/24 05:34:32;;;;;;;5.43;0.93;;;16.50;41.30;;;;;;4902989;28;20250;-83
2021/08/24 05:36:55;;;;;;;12.43;2.00;;;;;;;;;;4835122;28;20717;-83
2021/08/24 05:39:19;;;;;;;5.30;0.90;;;;;;;;;;4834762;28;20183;-84
2021/08/24 05:41:42;;;;;;;11.30;1.80;;;;;;;;;;4834840;28;20191;-82
2021/08/24 05:44:05;;;;;;;10.47;1.73;;;16.70;43.60;;;;;;4834749;28;20191;-84
2021/08/24 05:46:28;;;;;;;7.17;1.13;;;;;;;;;;4835153;28;20244;-84
2021/08/24 05:48:51;;;;;;;6.53;1.10;;;;;;;;;;4834255;28;20208;-82
2021/08/24 05:51:17;;;;;;;6.33;1.13;;;16.80;44.50;;;;;;4902318;28;20204;-81
2021/08/24 05:53:40;;;;;;;5.33;0.97;;;;;;;;;;4902203;28;20219;-79
2021/08/24 05:56:03;;;;;;;10.17;1.80;;;;;;;;;;4834813;28;20263;-82
2021/08/24 05:58:26;;;;;;;13.93;2.30;;;;;;;;;;4834222;28;20195;-84
2021/08/24 06:00:49;;;;;;;28.50;4.57;;;;;;;;;;4832615;28;20696;-80
2021/08/24 06:03:12;;;;;;;9.67;1.70;;;;;;;;;;4833471;28;20283;-83
2021/08/24 06:05:39;;;;;;;5.90;1.07;;;17.00;45.70;;;;;;4834695;28;20187;-83
2021/08/24 06:08:03;;;;;;;12.10;1.90;;;17.10;46.00;;;;;;4834545;28;20713;-81
2021/08/24 06:10:25;;;;;;;5.60;1.00;;;;;;;;;;4835671;28;20217;-80
2021/08/24 06:12:48;;;;;;;5.73;1.00;;;;;;;;;;4834998;28;20264;-83
2021/08/24 06:15:11;;;;;;;3.87;0.70;;;17.10;46.00;;;;;;4833922;28;20306;-82
2021/08/24 06:17:34;;;;;;;4.33;0.73;;;;;;;;;;4834880;28;20191;-82
2021/08/24 06:19:57;;;;;;;12.17;1.93;;;;;;;;;;4833779;28;20190;-85
2021/08/24 06:22:19;;;;;;;6.80;1.20;;;;;;;;;;4903958;28;20219;-82
2021/08/24 06:24:47;;;;;;;11.67;2.00;;;17.20;46.30;;;;;;4851790;28;20198;-82
2021/08/24 06:27:10;;;;;;;5.63;1.00;;;;;;;;;;4834059;28;20194;-83
2021/08/24 06:29:33;;;;;;;5.17;0.90;;;;;;;;;;4832482;28;20198;-84
2021/08/24 06:31:59;;;;;;;11.13;1.97;;;17.10;46.00;;;;;;4833873;28;20190;-83
2021/08/24 06:34:23;;;;;;;5.93;1.03;;;17.00;46.00;;;;;;4834217;28;20552;-83
2021/08/24 06:36:46;;;;;;;3.07;0.63;;;17.00;46.20;;;;;;4835230;28;20199;-83
2021/08/24 06:39:10;;;;;;;8.40;1.47;;;;;;;;;;4834847;28;20600;-82
2021/08/24 06:41:34;;;;;;;4.40;0.87;;;17.10;44.90;;;;;;4835351;28;20729;-81
2021/08/24 06:43:57;;;;;;;9.53;1.53;;;;;;;;;;4834988;28;20246;-82
2021/08/24 06:46:19;;;;;;;10.37;1.77;;;;;;;;;;4834282;28;20187;-79
2021/08/24 06:48:43;;;;;;;12.53;2.10;;;;;;;;;;4832982;28;20648;-80
2021/08/24 06:51:05;;;;;;;8.47;1.53;;;;;;;;;;4832556;28;20240;-81
2021/08/24 06:53:28;;;;;;;7.33;1.27;;;;;;;;;;4834298;28;20578;-80
2021/08/24 06:55:51;;;;;;;5.13;0.93;;;;;;;;;;4831110;28;20195;-79
2021/08/24 06:58:18;;;;;;;19.60;3.20;;;16.60;45.50;;;;;;4832503;28;20195;-79
2021/08/24 07:00:41;;;;;;;50.90;8.67;;;16.90;44.30;;;;;;4826717;28;20254;-81
2021/08/24 07:03:05;;;;;;;11.40;2.00;;;18.20;44.90;;;;;;4833074;28;20234;-79
2021/08/24 07:05:30;;;;;;;3.93;0.83;;;16.50;45.60;;;;;;4826363;28;20570;-79
2021/08/24 07:07:54;;;;;;;8.43;1.57;;;;;;;;;;4833307;28;20190;-79
2021/08/24 07:10:18;;;;;;;6.33;1.20;;;16.30;45.70;;;;;;4831787;28;20207;-78
2021/08/24 07:12:41;;;;;;;5.73;1.10;;;16.50;44.40;;;;;;4832767;28;20207;-81
2021/08/24 07:15:08;;;;;;;8.30;1.43;;;16.20;45.30;;;;;;4835271;28;20202;-80
2021/08/24 07:17:30;;;;;;;3.27;0.67;;;;;;;;;;4904909;28;20246;-76
2021/08/24 07:19:53;;;;;;;5.20;1.03;;;;;;;;;;4835326;28;20191;-83
2021/08/24 07:22:16;;;;;;;4.43;0.83;;;;;;;;;;4836008;28;20222;-82
2021/08/24 07:24:39;;;;;;;6.40;1.20;;;;;;;;;;4825586;28;20200;-78
2021/08/24 07:27:01;;;;;;;12.27;2.07;;;;;;;;;;4832434;28;20231;-80
2021/08/24 07:29:24;;;;;;;5.00;0.90;;;15.70;43.20;;;;;;4835685;28;20240;-80
2021/08/24 07:31:48;;;;;;;5.37;1.03;;;16.10;44.10;;;;;;4835846;28;20240;-80
2021/08/24 07:34:11;;;;;;;3.00;0.60;;;;;;;;;;4836099;28;20217;-76
2021/08/24 07:36:34;;;;;;;5.60;1.00;;;;;;;;;;4837229;28;20191;-80
2021/08/24 07:38:57;;;;;;;12.50;2.17;;;;;;;;;;4836072;28;20183;-80
2021/08/24 07:41:20;;;;;;;3.60;0.77;;;;;;;;;;4836222;28;20207;-81
2021/08/24 07:43:43;;;;;;;6.60;1.23;;;;;;;;;;4837064;28;20228;-79
2021/08/24 07:46:06;;;;;;;11.50;2.23;;;;;;;;;;4808875;28;20192;-84
2021/08/24 07:48:30;;;;;;;8.60;1.70;;;16.30;45.30;;;;;;4816805;28;21018;-82
2021/08/24 07:50:53;;;;;;;6.67;1.27;;;;;;;;;;4818187;28;20202;-81
2021/08/24 07:53:15;;;;;;;5.80;1.10;;;;;;;;;;4833686;28;20278;-74
2021/08/24 07:55:38;;;;;;;4.90;1.03;;;;;;;;;;4836411;28;20236;-72
2021/08/24 07:58:01;;;;;;;7.37;1.43;;;;;;;;;;4835576;28;20186;-79
2021/08/24 08:00:24;;;;;;;6.87;1.37;;;;;;;;;;4835252;28;20811;-75
2021/08/24 08:02:46;;;;;;;10.77;2.03;;;;;;;;;;4817956;28;20233;-75
2021/08/24 08:05:13;;;;;;;8.43;1.63;;;16.60;46.30;;;;;;4835570;28;20240;-77
2021/08/24 08:07:36;;;;;;;5.83;1.10;;;;;;;;;;4835472;28;20214;-73
2021/08/24 08:09:58;;;;;;;8.47;1.50;;;;;;;;;;4835410;28;20204;-72
2021/08/24 08:12:21;;;;;;;4.70;1.00;;;;;;;;;;4836131;28;20183;-73
2021/08/24 08:14:44;;;;;;;6.30;1.20;;;;;;;;;;4834947;28;20303;-72
2021/08/24 08:17:10;;;;;;;8.80;1.93;;;;;;;;;;4835579;28;20202;-74
2021/08/24 08:19:32;;;;;;;4.27;0.87;;;;;;;;;;4834924;28;20198;-74
2021/08/24 08:21:56;;;;;;;11.33;2.00;;;16.30;46.80;;;;;;4835450;28;20223;-73
2021/08/24 08:24:19;;;;;;;7.20;1.37;;;;;;;;;;4835312;28;20697;-74
2021/08/24 08:26:42;;;;;;;8.20;1.47;;;;;;;;;;4835412;28;20187;-73
2021/08/24 08:29:09;;;;;;;12.37;2.13;;;16.20;46.70;;;;;;4834211;28;20240;-72
2021/08/24 08:31:34;;;;;;;4.97;0.90;;;16.10;46.60;;;;;;4836307;28;20195;-78
2021/08/24 08:33:57;;;;;;;11.60;2.07;;;;;;;;;;4835329;28;20253;-72
2021/08/24 08:36:19;;;;;;;6.03;1.13;;;;;;;;;;4834877;28;20248;-73
2021/08/24 08:38:43;;;;;;;12.33;2.27;;;16.00;46.50;;;;;;4833631;28;20251;-75
2021/08/24 08:41:10;;;;;;;8.90;1.60;;;15.90;47.10;;;;;;4835065;28;20264;-73
2021/08/24 08:43:41;;;;;;;7.70;1.43;;;15.80;47.20;;;;;;4835777;28;20220;-78
2021/08/24 08:46:14;;;;;;;13.40;2.43;;;17.10;47.70;;;;;;4834658;28;20175;-75
2021/08/24 08:48:46;;;;;;;6.20;1.23;;;15.60;47.20;;;;;;4834987;28;20183;-73
2021/08/24 08:51:31;;;;;;;8.57;1.70;;;15.60;47.00;;;;;;4834614;28;20605;-72
2021/08/24 08:54:01;;;;;;;6.47;1.27;;;15.50;46.70;;;;;;4835171;28;20659;-74
2021/08/24 08:56:31;;;;;;;10.53;2.00;;;15.40;46.40;;;;;;4834981;28;20518;-85
2021/08/24 08:59:01;;;;;;;9.87;1.80;;;15.40;46.70;;;;;;4834504;28;20170;-73
2021/08/24 09:01:27;;;;;;;8.93;1.80;;;15.40;46.80;;;;;;4832441;28;20600;-76
2021/08/24 09:03:55;;;;;;;5.43;1.20;;;15.40;46.60;;;;;;4835210;28;20564;-80
2021/08/24 09:06:21;;;;;;;7.83;1.40;;;15.30;46.80;;;;;;4836027;28;20191;-87
2021/08/24 09:08:45;;;;;;;6.37;1.17;;;15.30;46.90;;;;;;4835751;28;20208;-84
2021/08/24 09:11:10;;;;;;;11.70;2.13;;;15.20;46.80;;;;;;4834324;28;20207;-80
2021/08/24 09:13:38;;;;;;;8.60;1.63;;;15.20;46.60;;;;;;4834878;28;20206;-77
2021/08/24 09:16:13;;;;;;;10.87;1.97;;;15.20;46.60;;;;;;4816163;28;20195;-80
2021/08/24 09:18:47;;;;;;;8.73;1.63;;;15.20;46.10;;;;;;4814928;28;20192;-80
2021/08/24 09:21:14;;;;;;;12.73;2.40;;;15.20;46.20;;;;;;4822613;28;20179;-85
2021/08/24 09:23:37;;;;;;;7.50;1.37;;;;;;;;;;4834942;28;20163;-79
2021/08/24 09:26:11;;;;;;;10.73;1.90;;;15.30;46.20;;;;;;4835343;28;20194;-79
2021/08/24 09:28:36;;;;;;;6.40;1.23;;;15.40;46.20;;;;;;4834331;28;20239;-79
2021/08/24 09:30:59;;;;;;;11.70;2.03;;;15.40;46.70;;;;;;4834703;28;20252;-84
2021/08/24 09:33:22;;;;;;;5.70;1.10;;;15.40;47.00;;;;;;4902911;28;20188;-89
2021/08/24 09:35:47;;;;;;;9.00;1.60;;;15.40;46.80;;;;;;4834731;28;20260;-76
2021/08/24 09:38:14;;;;;;;16.10;2.80;;;15.40;46.70;;;;;;4832960;28;20259;-81
2021/08/24 09:40:43;;;;;;;5.97;1.10;;;15.40;47.00;;;;;;4834752;28;20236;-83
2021/08/24 09:43:23;;;;;;;13.97;2.47;;;15.40;47.10;;;;;;4833346;28;20198;-84
2021/08/24 09:45:47;;;;;;;6.70;1.20;;;15.40;47.40;;;;;;4834673;28;20195;-83
2021/08/24 09:48:10;;;;;;;16.73;2.97;;;15.50;47.40;;;;;;4900974;28;20198;-77
2021/08/24 09:50:36;;;;;;;9.23;1.67;;;15.40;47.30;;;;;;4834660;28;20465;-81
2021/08/24 09:52:59;;;;;;;9.87;1.73;;;;;;;;;;4902101;28;20184;-80
2021/08/24 09:55:27;;;;;;;5.70;1.10;;;15.60;47.30;;;;;;4918633;28;20219;-84
2021/08/24 09:57:55;;;;;;;5.10;1.03;;;15.70;47.50;;;;;;4834750;28;20241;-85
2021/08/24 10:00:21;;;;;;;10.27;1.73;;;15.80;47.70;;;;;;4833835;28;20190;-82
2021/08/24 10:02:47;;;;;;;6.03;1.17;;;16.00;48.10;;;;;;4831498;28;20214;-82
2021/08/24 10:05:12;;;;;;;12.87;2.33;;;16.20;48.30;;;;;;4833296;28;20195;-82
2021/08/24 10:07:37;;;;;;;2.50;0.63;;;16.30;48.30;;;;;;4834953;28;20194;-86
2021/08/24 10:10:00;;;;;;;12.60;2.10;;;;;;;;;;4833540;28;20211;-85
2021/08/24 10:12:24;;;;;;;9.27;1.60;;;16.50;48.80;;;;;;4834324;28;20246;-90
2021/08/24 10:14:48;;;;;;;9.40;1.57;;;16.60;49.00;;;;;;4834464;28;20604;-78
2021/08/24 10:17:24;;;;;;;7.53;1.30;;;16.70;49.10;;;;;;4834603;28;20655;-88
2021/08/24 10:19:48;;;;;;;4.07;0.73;;;16.80;49.20;;;;;;4896899;28;20192;-87
2021/08/24 10:22:16;;;;;;;9.43;1.53;;;16.90;49.30;;;;;;4832493;28;20226;-90
2021/08/24 10:24:41;;;;;;;8.20;1.40;;;17.00;49.30;;;;;;4833577;28;20252;-82
2021/08/24 10:27:07;;;;;;;11.33;1.83;;;17.00;49.50;;;;;;4835167;28;20240;-88
2021/08/24 10:29:33;;;;;;;6.13;1.10;;;17.00;49.50;;;;;;4902531;28;20204;-85
2021/08/24 10:32:02;;;;;;;10.27;1.80;;;17.00;49.40;;;;;;4834320;28;20248;-79
2021/08/24 10:34:30;;;;;;;5.60;1.03;;;17.00;49.50;;;;;;4827329;28;20219;-87
2021/08/24 10:37:12;;;;;;;3.83;0.77;;;16.90;49.50;;;;;;4834757;28;20240;-78
2021/08/24 10:39:35;;;;;;;3.17;0.60;;;;;;;;;;4834177;28;20861;-85
2021/08/24 10:42:08;;;;;;;18.47;3.07;;;16.50;49.20;;;;;;4900448;28;20688;-88
2021/08/24 10:44:44;;;;;;;4.47;0.80;;;16.40;49.10;;;;;;4835193;28;20703;-87
2021/08/24 10:47:19;;;;;;;15.77;2.63;;;16.30;48.90;;;;;;4901897;28;20199;-85
2021/08/24 10:49:42;;;;;;;4.97;0.97;;;;;;;;;;4835251;28;20241;-86
2021/08/24 10:52:12;;;;;;;11.50;1.90;;;16.40;49.00;;;;;;4836585;28;20190;-73
2021/08/24 10:54:45;;;;;;;5.43;1.03;;;16.40;49.10;;;;;;4837316;28;20207;-75
2021/08/24 10:57:32;;;;;;;12.83;2.27;;;16.50;49.10;;;;;;4833930;28;20191;-78
2021/08/24 11:00:02;;;;;;;7.83;1.30;;;16.60;49.10;;;;;;4836502;28;20186;-87
2021/08/24 11:02:38;;;;;;;5.50;1.00;;;16.60;49.20;;;;;;4830923;28;20704;-88
2021/08/24 11:05:22;;;;;;;9.20;1.60;;;16.70;49.20;;;;;;4833781;28;20235;-88
2021/08/24 11:07:55;;;;;;;8.53;1.53;;;16.70;49.20;;;;;;4887083;28;20240;-83
2021/08/24 11:10:23;;;;;;;4.10;0.80;;;16.60;49.40;;;;;;4836959;28;20210;-87
2021/08/24 11:13:01;;;;;;;10.80;1.87;;;16.60;49.30;;;;;;4825976;28;20195;-83
2021/08/24 11:15:36;;;;;;;6.50;1.20;;;16.60;49.30;;;;;;4922383;28;20206;-86
2021/08/24 11:18:04;;;;;;;10.73;1.87;;;16.60;49.20;;;;;;4837015;28;20220;-74
2021/08/24 11:20:38;;;;;;;7.23;1.33;;;16.50;49.10;;;;;;4912173;28;20191;-82
2021/08/24 11:23:13;;;;;;;11.37;1.87;;;16.40;49.10;;;;;;4837000;28;20838;-83
2021/08/24 11:25:42;;;;;;;6.20;1.13;;;16.40;49.10;;;;;;4830425;28;20521;-85
2021/08/24 11:28:09;;;;;;;13.77;2.40;;;16.30;48.90;;;;;;4835764;28;20216;-82
2021/08/24 11:30:43;;;;;;;4.43;0.90;;;16.40;48.90;;;;;;4836140;28;20724;-77
2021/08/24 11:33:09;;;;;;;12.67;2.13;;;16.30;48.90;;;;;;4835881;28;20252;-83
2021/08/24 11:35:50;;;;;;;4.30;0.80;;;16.20;48.90;;;;;;4836435;28;20207;-83
2021/08/24 11:38:18;;;;;;;18.90;2.93;;;16.10;48.70;;;;;;4833089;28;20271;-77
2021/08/24 11:40:45;;;;;;;9.43;1.53;;;16.00;48.50;;;;;;4902756;28;20188;-86
2021/08/24 11:43:13;;;;;;;13.60;2.33;;;16.00;48.30;;;;;;4835513;28;20202;-81
2021/08/24 11:45:43;;;;;;;4.03;0.80;;;16.00;48.30;;;;;;4902848;28;20541;-80
2021/08/24 11:48:12;;;;;;;11.43;2.07;;;15.90;48.10;;;;;;4827389;28;20611;-78
2021/08/24 11:50:50;;;;;;;7.43;1.30;;;15.80;47.90;;;;;;4901392;28;20734;-79
2021/08/24 11:53:23;;;;;;;9.50;1.77;;;15.80;47.90;;;;;;4902442;28;20180;-79
2021/08/24 11:55:56;;;;;;;6.10;1.13;;;15.80;47.80;;;;;;4827263;28;20206;-80
2021/08/24 11:58:26;;;;;;;20.73;3.47;;;15.70;47.80;;;;;;4834710;28;20183;-78
2021/08/24 12:00:51;;;;;;;25.23;4.33;;;15.70;47.60;;;;;;4899879;28;20197;-73
2021/08/24 12:03:18;;;;;;;12.57;2.23;;;15.70;47.30;;;;;;4900912;28;20218;-81
2021/08/24 12:05:46;;;;;;;5.57;1.17;;;15.70;47.10;;;;;;4830065;28;20240;-82
2021/08/24 12:08:16;;;;;;;15.63;2.67;;;15.70;47.20;;;;;;4833167;28;20247;-82
2021/08/24 12:10:58;;;;;;;6.40;1.17;;;15.70;47.00;;;;;;4835751;28;20211;-83
2021/08/24 12:13:28;;;;;;;6.40;1.17;;;15.80;47.10;;;;;;4834098;28;20609;-84
2021/08/24 12:15:52;;;;;;;6.60;1.20;;;;;;;;;;4835150;28;20214;-81
2021/08/24 12:18:27;;;;;;;19.80;3.20;;;15.80;47.10;;;;;;4834534;28;20248;-82
2021/08/24 12:20:52;;;;;;;7.00;1.30;;;15.80;47.20;;;;;;4916731;28;20657;-83
2021/08/24 12:23:31;;;;;;;8.60;1.53;;;15.90;47.20;;;;;;4833028;28;20223;-75
2021/08/24 12:25:56;;;;;;;5.77;1.03;;;16.00;47.20;;;;;;4903946;28;20180;-84
2021/08/24 12:28:38;;;;;;;18.93;3.07;;;15.90;46.90;;;;;;4836041;28;20647;-75
2021/08/24 12:31:20;;;;;;;14.07;2.30;;;16.10;47.10;;;;;;4835645;28;20240;-75
2021/08/24 12:33:44;;;;;;;15.07;2.53;;;16.10;47.20;;;;;;4834060;28;20228;-74
2021/08/24 12:36:49;;;;;;;10.30;1.70;;;16.10;47.40;;;;;;4903153;28;20345;-75
2021/08/24 12:39:35;;;;;;;8.53;1.60;;;16.20;47.70;;;;;;4902455;28;20229;-74
2021/08/24 12:42:26;;;;;;;5.30;0.93;;;16.20;47.60;;;;;;4834386;28;20644;-73
2021/08/24 12:44:52;;;;;;;7.80;1.30;;;16.20;47.20;;;;;;4828308;28;20199;-74
2021/08/24 12:47:41;;;;;;;8.20;1.43;;;16.20;47.40;;;;;;4902468;28;20200;-78
2021/08/24 12:50:37;;;;;;;11.77;1.97;;;16.20;47.30;;;;;;4834188;28;20214;-78
2021/08/24 12:53:38;;;;;;;11.53;1.87;;;16.20;47.40;;;;;;4835343;28;20240;-81
2021/08/24 12:56:04;;;;;;;12.40;2.07;;;16.20;47.50;;;;;;4905911;28;21486;-80
2021/08/24 12:58:29;;;;;;;11.70;1.97;;;16.20;47.50;;;;;;4834246;28;20224;-88
2021/08/24 13:01:10;;;;;;;13.90;2.37;;;16.20;47.30;;;;;;4898678;28;20188;-81
2021/08/24 13:03:33;;;;;;;6.47;1.17;;;;;;;;;;4829229;28;20266;-74
2021/08/24 13:06:20;;;;;;;10.60;1.87;;;16.30;47.50;;;;;;4834496;28;20190;-78
2021/08/24 13:08:43;;;;;;;5.23;0.97;;;;;;;;;;4829112;28;20186;-74
2021/08/24 13:11:40;;;;;;;12.10;2.03;;;16.20;47.70;;;;;;4902506;28;20204;-73
2021/08/24 13:14:04;;;;;;;15.17;2.50;;;16.20;47.70;;;;;;4830265;28;20244;-80
2021/08/24 13:16:32;;;;;;;13.83;2.40;;;16.20;47.50;;;;;;4833485;28;20276;-83
2021/08/24 13:18:57;;;;;;;6.10;1.13;;;16.10;47.70;;;;;;4833844;28;20187;-80